sensor_id;sensor_type;location;lat;lon;timestamp;pressure;altitude;pressure_sealevel;temperature;humidity
6204;BME280;3135;42.602;23.468;2023-02-02T00:01:17;93003.13;;;2.07;100.00
6204;BME280;3135;42.602;23.468;2023-02-02T00:03:43;93009.63;;;2.16;100.00
6204;BME280;3135;42.602;23.468;2023-02-02T00:06:09;93001.41;;;2.12;100.00
6204;BME280;3135;42.602;23.468;2023-02-02T00:08:34;93005.06;;;2.23;100.00
6204;BME280;3135;42.602;23.468;2023-02-02T00:11:00;92993.34;;;2.19;100.00
6204;BME280;3135;42.602;23.468;2023-02-02T00:13:26;92997.28;;;2.04;100.00
6204;BME280;3135;42.602;23.468;2023-02-02T00:15:52;92981.84;;;1.85;100.00
6204;BME280;3135;42.602;23.468;2023-02-02T00:18:17;92997.75;;;2.01;100.00
6204;BME280;3135;42.602;23.468;2023-02-02T00:20:44;92999.72;;;1.94;100.00
6204;BME280;3135;42.602;23.468;2023-02-02T00:23:13;93006.91;;;1.99;100.00
6204;BME280;3135;42.602;23.468;2023-02-02T00:25:39;93008.88;;;2.03;100.00
6204;BME280;3135;42.602;23.468;2023-02-02T00:28:04;92994.66;;;1.93;100.00
6204;BME280;3135;42.602;23.468;2023-02-02T00:30:30;93001.88;;;1.74;100.00
6204;BME280;3135;42.602;23.468;2023-02-02T00:32:55;93009.34;;;1.89;100.00
6204;BME280;3135;42.602;23.468;2023-02-02T00:35:21;93014.94;;;1.92;100.00
6204;BME280;3135;42.602;23.468;2023-02-02T00:37:46;92999.59;;;1.77;100.00
6204;BME280;3135;42.602;23.468;2023-02-02T00:40:12;93013.78;;;1.88;100.00
6204;BME280;3135;42.602;23.468;2023-02-02T00:42:37;93010.50;;;1.81;100.00
6204;BME280;3135;42.602;23.468;2023-02-02T00:45:03;93012.41;;;1.97;100.00
6204;BME280;3135;42.602;23.468;2023-02-02T00:47:46;93018.84;;;1.90;100.00
6204;BME280;3135;42.602;23.468;2023-02-02T00:50:17;93020.31;;;1.97;100.00
6204;BME280;3135;42.602;23.468;2023-02-02T00:52:47;93010.69;;;1.91;100.00
6204;BME280;3135;42.602;23.468;2023-02-02T00:55:14;93015.53;;;1.94;100.00
6204;BME280;3135;42.602;23.468;2023-02-02T00:57:40;93006.81;;;1.94;100.00
6204;BME280;3135;42.602;23.468;2023-02-02T01:00:08;92999.91;;;1.93;100.00
6204;BME280;3135;42.602;23.468;2023-02-02T01:02:34;93009.56;;;1.99;100.00
6204;BME280;3135;42.602;23.468;2023-02-02T01:05:00;93003.38;;;1.93;100.00
6204;BME280;3135;42.602;23.468;2023-02-02T01:07:25;93012.91;;;1.71;100.00
6204;BME280;3135;42.602;23.468;2023-02-02T01:09:51;93001.19;;;1.55;100.00
6204;BME280;3135;42.602;23.468;2023-02-02T01:12:16;92989.75;;;1.49;100.00
6204;BME280;3135;42.602;23.468;2023-02-02T01:14:41;92989.53;;;1.51;100.00
6204;BME280;3135;42.602;23.468;2023-02-02T01:17:07;92983.00;;;1.53;100.00
6204;BME280;3135;42.602;23.468;2023-02-02T01:19:32;93000.50;;;1.60;100.00
6204;BME280;3135;42.602;23.468;2023-02-02T01:21:58;92992.28;;;1.68;100.00
6204;BME280;3135;42.602;23.468;2023-02-02T01:24:24;92996.63;;;1.74;100.00
6204;BME280;3135;42.602;23.468;2023-02-02T01:26:49;92964.00;;;1.51;100.00
6204;BME280;3135;42.602;23.468;2023-02-02T01:29:14;92978.06;;;1.69;100.00
6204;BME280;3135;42.602;23.468;2023-02-02T01:31:40;92976.91;;;1.76;100.00
6204;BME280;3135;42.602;23.468;2023-02-02T01:34:06;92988.72;;;1.74;100.00
6204;BME280;3135;42.602;23.468;2023-02-02T01:36:32;92960.22;;;1.71;100.00
6204;BME280;3135;42.602;23.468;2023-02-02T01:38:57;92963.16;;;1.86;100.00
6204;BME280;3135;42.602;23.468;2023-02-02T01:41:24;92970.72;;;1.94;100.00
6204;BME280;3135;42.602;23.468;2023-02-02T01:43:53;92962.72;;;1.89;100.00
6204;BME280;3135;42.602;23.468;2023-02-02T01:46:27;92967.97;;;1.89;100.00
6204;BME280;3135;42.602;23.468;2023-02-02T01:51:39;92955.97;;;1.58;100.00
6204;BME280;3135;42.602;23.468;2023-02-02T01:54:15;92959.88;;;1.56;100.00
6204;BME280;3135;42.602;23.468;2023-02-02T01:56:48;92969.94;;;1.59;100.00
6204;BME280;3135;42.602;23.468;2023-02-02T01:59:16;92958.75;;;1.51;100.00
6204;BME280;3135;42.602;23.468;2023-02-02T02:01:43;92955.31;;;1.51;100.00
6204;BME280;3135;42.602;23.468;2023-02-02T02:04:09;92948.75;;;1.53;100.00
6204;BME280;3135;42.602;23.468;2023-02-02T02:06:36;92948.09;;;1.46;100.00
6204;BME280;3135;42.602;23.468;2023-02-02T02:09:04;92955.41;;;1.56;100.00
6204;BME280;3135;42.602;23.468;2023-02-02T02:11:31;92939.38;;;1.34;100.00
6204;BME280;3135;42.602;23.468;2023-02-02T02:14:02;92941.66;;;1.31;100.00
6204;BME280;3135;42.602;23.468;2023-02-02T02:22:24;92940.63;;;1.43;100.00
6204;BME280;3135;42.602;23.468;2023-02-02T02:25:30;92966.41;;;1.53;100.00
6204;BME280;3135;42.602;23.468;2023-02-02T02:33:51;92957.81;;;1.34;100.00
6204;BME280;3135;42.602;23.468;2023-02-02T02:36:39;92957.94;;;1.39;100.00
6204;BME280;3135;42.602;23.468;2023-02-02T02:42:03;92947.97;;;1.41;100.00
6204;BME280;3135;42.602;23.468;2023-02-02T02:44:32;92951.41;;;1.42;100.00
6204;BME280;3135;42.602;23.468;2023-02-02T02:46:59;92947.81;;;1.13;100.00
6204;BME280;3135;42.602;23.468;2023-02-02T02:49:25;92955.31;;;1.27;100.00
6204;BME280;3135;42.602;23.468;2023-02-02T02:51:52;92941.91;;;1.29;100.00
6204;BME280;3135;42.602;23.468;2023-02-02T02:54:22;92964.09;;;1.45;100.00
6204;BME280;3135;42.602;23.468;2023-02-02T03:02:39;92961.59;;;1.38;100.00
6204;BME280;3135;42.602;23.468;2023-02-02T03:07:49;92963.19;;;1.27;100.00
6204;BME280;3135;42.602;23.468;2023-02-02T03:10:18;92958.94;;;1.15;100.00
6204;BME280;3135;42.602;23.468;2023-02-02T03:12:47;92953.44;;;1.16;100.00
6204;BME280;3135;42.602;23.468;2023-02-02T03:15:13;92943.72;;;1.05;100.00
6204;BME280;3135;42.602;23.468;2023-02-02T03:17:40;92952.09;;;1.25;100.00
6204;BME280;3135;42.602;23.468;2023-02-02T03:20:07;92941.22;;;1.34;100.00
6204;BME280;3135;42.602;23.468;2023-02-02T03:22:33;92944.66;;;1.34;100.00
6204;BME280;3135;42.602;23.468;2023-02-02T03:24:58;92949.91;;;1.34;100.00
6204;BME280;3135;42.602;23.468;2023-02-02T03:27:24;92942.72;;;1.41;100.00
6204;BME280;3135;42.602;23.468;2023-02-02T03:29:50;92934.56;;;1.31;100.00
6204;BME280;3135;42.602;23.468;2023-02-02T03:32:16;92945.91;;;1.43;100.00
6204;BME280;3135;42.602;23.468;2023-02-02T03:34:42;92935.69;;;1.12;100.00
6204;BME280;3135;42.602;23.468;2023-02-02T03:37:07;92948.66;;;1.13;100.00
6204;BME280;3135;42.602;23.468;2023-02-02T03:39:33;92949.09;;;1.22;100.00
6204;BME280;3135;42.602;23.468;2023-02-02T03:41:58;92938.69;;;1.04;100.00
6204;BME280;3135;42.602;23.468;2023-02-02T03:44:23;92955.88;;;1.18;100.00
6204;BME280;3135;42.602;23.468;2023-02-02T03:46:52;92951.16;;;1.20;100.00
6204;BME280;3135;42.602;23.468;2023-02-02T03:49:18;92949.34;;;1.20;100.00
6204;BME280;3135;42.602;23.468;2023-02-02T03:51:44;92950.59;;;1.18;100.00
6204;BME280;3135;42.602;23.468;2023-02-02T03:54:09;92957.69;;;1.17;100.00
6204;BME280;3135;42.602;23.468;2023-02-02T03:56:34;92970.50;;;1.25;100.00
6204;BME280;3135;42.602;23.468;2023-02-02T03:59:00;92945.06;;;0.96;100.00
6204;BME280;3135;42.602;23.468;2023-02-02T04:01:27;92982.63;;;1.15;100.00
6204;BME280;3135;42.602;23.468;2023-02-02T04:03:54;92959.63;;;1.10;100.00
6204;BME280;3135;42.602;23.468;2023-02-02T04:06:20;92973.03;;;1.09;100.00
6204;BME280;3135;42.602;23.468;2023-02-02T04:08:45;92969.31;;;0.86;100.00
6204;BME280;3135;42.602;23.468;2023-02-02T04:11:11;92961.84;;;0.83;100.00
6204;BME280;3135;42.602;23.468;2023-02-02T04:13:36;92965.84;;;0.74;100.00
6204;BME280;3135;42.602;23.468;2023-02-02T04:16:02;92963.69;;;0.71;100.00
6204;BME280;3135;42.602;23.468;2023-02-02T04:18:28;92973.53;;;0.75;100.00
6204;BME280;3135;42.602;23.468;2023-02-02T04:21:00;92956.16;;;0.44;100.00
6204;BME280;3135;42.602;23.468;2023-02-02T04:23:27;92973.25;;;0.65;100.00
6204;BME280;3135;42.602;23.468;2023-02-02T04:25:53;92976.91;;;0.34;100.00
6204;BME280;3135;42.602;23.468;2023-02-02T04:28:19;92979.44;;;0.41;100.00
6204;BME280;3135;42.602;23.468;2023-02-02T04:30:44;92973.69;;;0.32;100.00
6204;BME280;3135;42.602;23.468;2023-02-02T04:33:10;92949.50;;;0.12;100.00
6204;BME280;3135;42.602;23.468;2023-02-02T04:35:35;92971.19;;;0.37;100.00
6204;BME280;3135;42.602;23.468;2023-02-02T04:38:01;92976.50;;;0.49;100.00
6204;BME280;3135;42.602;23.468;2023-02-02T04:40:26;92980.66;;;0.57;100.00
6204;BME280;3135;42.602;23.468;2023-02-02T04:42:52;92972.63;;;0.21;100.00
6204;BME280;3135;42.602;23.468;2023-02-02T04:45:17;92979.59;;;0.46;100.00
6204;BME280;3135;42.602;23.468;2023-02-02T04:47:42;92972.34;;;0.41;100.00
6204;BME280;3135;42.602;23.468;2023-02-02T04:50:08;92975.53;;;0.32;100.00
6204;BME280;3135;42.602;23.468;2023-02-02T04:52:34;92973.41;;;0.22;100.00
6204;BME280;3135;42.602;23.468;2023-02-02T04:55:00;92988.59;;;0.38;100.00
6204;BME280;3135;42.602;23.468;2023-02-02T04:57:25;92987.09;;;0.12;100.00
6204;BME280;3135;42.602;23.468;2023-02-02T04:59:51;92984.56;;;0.36;100.00
6204;BME280;3135;42.602;23.468;2023-02-02T05:02:16;92969.63;;;0.18;100.00
6204;BME280;3135;42.602;23.468;2023-02-02T05:04:42;92966.31;;;-0.08;100.00
6204;BME280;3135;42.602;23.468;2023-02-02T05:07:07;92980.97;;;0.00;100.00
6204;BME280;3135;42.602;23.468;2023-02-02T05:09:33;92983.81;;;-0.02;100.00
6204;BME280;3135;42.602;23.468;2023-02-02T05:11:58;92958.47;;;0.04;100.00
6204;BME280;3135;42.602;23.468;2023-02-02T05:14:24;92981.47;;;0.09;100.00
6204;BME280;3135;42.602;23.468;2023-02-02T05:16:49;92982.44;;;0.14;100.00
6204;BME280;3135;42.602;23.468;2023-02-02T05:19:14;92991.03;;;0.21;100.00
6204;BME280;3135;42.602;23.468;2023-02-02T05:21:42;92973.19;;;0.23;100.00
6204;BME280;3135;42.602;23.468;2023-02-02T05:24:09;92991.81;;;0.22;100.00
6204;BME280;3135;42.602;23.468;2023-02-02T05:26:35;92976.06;;;0.04;100.00
6204;BME280;3135;42.602;23.468;2023-02-02T05:29:00;93002.41;;;0.15;100.00
6204;BME280;3135;42.602;23.468;2023-02-02T05:31:27;92998.91;;;0.21;100.00
6204;BME280;3135;42.602;23.468;2023-02-02T05:33:53;92990.97;;;0.10;100.00
6204;BME280;3135;42.602;23.468;2023-02-02T05:36:18;92988.47;;;0.15;100.00
6204;BME280;3135;42.602;23.468;2023-02-02T05:38:44;92998.38;;;0.31;100.00
6204;BME280;3135;42.602;23.468;2023-02-02T05:41:09;93001.09;;;0.24;100.00
6204;BME280;3135;42.602;23.468;2023-02-02T05:43:34;92987.44;;;0.16;100.00
6204;BME280;3135;42.602;23.468;2023-02-02T05:46:00;92988.63;;;0.02;100.00
6204;BME280;3135;42.602;23.468;2023-02-02T05:48:26;93000.44;;;0.11;100.00
6204;BME280;3135;42.602;23.468;2023-02-02T05:51:20;93007.91;;;-0.23;100.00
6204;BME280;3135;42.602;23.468;2023-02-02T05:53:47;93015.41;;;-0.27;100.00
6204;BME280;3135;42.602;23.468;2023-02-02T05:56:13;93000.88;;;-0.29;100.00
6204;BME280;3135;42.602;23.468;2023-02-02T05:58:40;93008.22;;;-0.38;100.00
6204;BME280;3135;42.602;23.468;2023-02-02T06:01:05;93001.19;;;-0.37;100.00
6204;BME280;3135;42.602;23.468;2023-02-02T06:03:31;92995.03;;;-0.31;100.00
6204;BME280;3135;42.602;23.468;2023-02-02T06:05:57;93019.53;;;-0.19;100.00
6204;BME280;3135;42.602;23.468;2023-02-02T06:08:22;93000.75;;;-0.16;100.00
6204;BME280;3135;42.602;23.468;2023-02-02T06:10:47;93015.47;;;-0.15;100.00
6204;BME280;3135;42.602;23.468;2023-02-02T06:13:13;93015.44;;;-0.33;100.00
6204;BME280;3135;42.602;23.468;2023-02-02T06:15:38;93012.69;;;-0.20;100.00
6204;BME280;3135;42.602;23.468;2023-02-02T06:18:06;93002.94;;;-0.13;100.00
6204;BME280;3135;42.602;23.468;2023-02-02T06:20:33;93019.22;;;-0.04;100.00
6204;BME280;3135;42.602;23.468;2023-02-02T06:22:58;93019.91;;;-0.15;100.00
6204;BME280;3135;42.602;23.468;2023-02-02T06:25:24;93027.38;;;-0.12;100.00
6204;BME280;3135;42.602;23.468;2023-02-02T06:27:54;93020.59;;;0.17;100.00
6204;BME280;3135;42.602;23.468;2023-02-02T06:30:19;93033.63;;;0.23;100.00
6204;BME280;3135;42.602;23.468;2023-02-02T06:32:45;93029.50;;;0.34;100.00
6204;BME280;3135;42.602;23.468;2023-02-02T06:35:10;93010.22;;;0.22;100.00
6204;BME280;3135;42.602;23.468;2023-02-02T06:37:35;93032.97;;;0.46;100.00
6204;BME280;3135;42.602;23.468;2023-02-02T06:40:04;93026.09;;;0.45;100.00
6204;BME280;3135;42.602;23.468;2023-02-02T06:42:30;93030.03;;;0.55;100.00
6204;BME280;3135;42.602;23.468;2023-02-02T06:44:55;93042.88;;;0.63;100.00
6204;BME280;3135;42.602;23.468;2023-02-02T06:47:20;93046.34;;;0.45;100.00
6204;BME280;3135;42.602;23.468;2023-02-02T06:49:46;93030.34;;;0.28;100.00
6204;BME280;3135;42.602;23.468;2023-02-02T06:52:11;93053.44;;;0.44;100.00
6204;BME280;3135;42.602;23.468;2023-02-02T06:54:37;93052.81;;;0.61;100.00
6204;BME280;3135;42.602;23.468;2023-02-02T06:57:02;93039.31;;;0.57;100.00
6204;BME280;3135;42.602;23.468;2023-02-02T06:59:28;93052.22;;;0.59;100.00
6204;BME280;3135;42.602;23.468;2023-02-02T07:01:53;93043.59;;;0.70;100.00
6204;BME280;3135;42.602;23.468;2023-02-02T07:04:19;93039.66;;;0.61;100.00
6204;BME280;3135;42.602;23.468;2023-02-02T07:06:45;93061.00;;;0.71;100.00
6204;BME280;3135;42.602;23.468;2023-02-02T07:09:10;93057.19;;;0.67;100.00
6204;BME280;3135;42.602;23.468;2023-02-02T07:11:36;93064.81;;;0.87;100.00
6204;BME280;3135;42.602;23.468;2023-02-02T07:14:01;93072.31;;;1.01;100.00
6204;BME280;3135;42.602;23.468;2023-02-02T07:16:27;93053.66;;;0.73;100.00
6204;BME280;3135;42.602;23.468;2023-02-02T07:18:53;93073.28;;;0.89;100.00
6204;BME280;3135;42.602;23.468;2023-02-02T07:21:20;93057.84;;;0.92;100.00
6204;BME280;3135;42.602;23.468;2023-02-02T07:23:46;93068.41;;;0.74;100.00
6204;BME280;3135;42.602;23.468;2023-02-02T07:26:13;93061.34;;;0.56;100.00
6204;BME280;3135;42.602;23.468;2023-02-02T07:28:39;93062.88;;;0.64;100.00
6204;BME280;3135;42.602;23.468;2023-02-02T07:31:15;93035.28;;;0.55;100.00
6204;BME280;3135;42.602;23.468;2023-02-02T07:33:42;93061.16;;;0.88;100.00
6204;BME280;3135;42.602;23.468;2023-02-02T07:36:09;93039.41;;;0.81;100.00
6204;BME280;3135;42.602;23.468;2023-02-02T07:38:35;93055.56;;;0.66;100.00
6204;BME280;3135;42.602;23.468;2023-02-02T07:41:00;93063.44;;;0.84;100.00
6204;BME280;3135;42.602;23.468;2023-02-02T07:43:26;93049.38;;;0.60;100.00
6204;BME280;3135;42.602;23.468;2023-02-02T07:45:52;93058.94;;;0.73;100.00
6204;BME280;3135;42.602;23.468;2023-02-02T07:48:17;93061.03;;;0.83;100.00
6204;BME280;3135;42.602;23.468;2023-02-02T07:50:42;93072.81;;;0.80;100.00
6204;BME280;3135;42.602;23.468;2023-02-02T07:53:08;93063.13;;;0.92;100.00
6204;BME280;3135;42.602;23.468;2023-02-02T07:55:33;93051.28;;;0.71;100.00
6204;BME280;3135;42.602;23.468;2023-02-02T07:57:59;93046.56;;;0.73;100.00
6204;BME280;3135;42.602;23.468;2023-02-02T08:00:26;93047.53;;;0.61;100.00
6204;BME280;3135;42.602;23.468;2023-02-02T08:02:51;93023.13;;;0.72;100.00
6204;BME280;3135;42.602;23.468;2023-02-02T08:05:18;93029.69;;;0.81;100.00
6204;BME280;3135;42.602;23.468;2023-02-02T08:07:43;93029.22;;;0.84;100.00
6204;BME280;3135;42.602;23.468;2023-02-02T08:10:09;93018.81;;;0.47;100.00
6204;BME280;3135;42.602;23.468;2023-02-02T08:12:35;93012.81;;;0.70;100.00
6204;BME280;3135;42.602;23.468;2023-02-02T08:15:00;93014.47;;;0.83;100.00
6204;BME280;3135;42.602;23.468;2023-02-02T08:17:26;93020.13;;;0.98;100.00
6204;BME280;3135;42.602;23.468;2023-02-02T08:19:51;93014.53;;;0.95;100.00
6204;BME280;3135;42.602;23.468;2023-02-02T08:22:16;93007.69;;;1.17;100.00
6204;BME280;3135;42.602;23.468;2023-02-02T08:24:42;93002.13;;;1.37;100.00
6204;BME280;3135;42.602;23.468;2023-02-02T08:27:08;93006.47;;;1.55;100.00
6204;BME280;3135;42.602;23.468;2023-02-02T08:29:35;93013.13;;;1.81;100.00
6204;BME280;3135;42.602;23.468;2023-02-02T08:32:02;93001.19;;;1.90;100.00
6204;BME280;3135;42.602;23.468;2023-02-02T08:34:28;93010.34;;;1.99;100.00
6204;BME280;3135;42.602;23.468;2023-02-02T08:36:53;92992.59;;;1.95;100.00
6204;BME280;3135;42.602;23.468;2023-02-02T08:39:18;92996.03;;;2.07;100.00
6204;BME280;3135;42.602;23.468;2023-02-02T08:41:44;93011.22;;;2.28;100.00
6204;BME280;3135;42.602;23.468;2023-02-02T08:44:12;93005.28;;;2.10;100.00
6204;BME280;3135;42.602;23.468;2023-02-02T08:46:39;92999.44;;;2.19;100.00
6204;BME280;3135;42.602;23.468;2023-02-02T08:49:04;92996.44;;;2.27;100.00
6204;BME280;3135;42.602;23.468;2023-02-02T08:51:29;93009.38;;;2.41;100.00
6204;BME280;3135;42.602;23.468;2023-02-02T08:53:55;92999.09;;;2.56;100.00
6204;BME280;3135;42.602;23.468;2023-02-02T08:56:21;93002.53;;;2.56;100.00
6204;BME280;3135;42.602;23.468;2023-02-02T08:58:50;92994.25;;;2.36;100.00
6204;BME280;3135;42.602;23.468;2023-02-02T09:01:18;92991.28;;;2.21;100.00
6204;BME280;3135;42.602;23.468;2023-02-02T09:03:44;93002.94;;;2.37;100.00
6204;BME280;3135;42.602;23.468;2023-02-02T09:06:12;93021.81;;;2.57;100.00
6204;BME280;3135;42.602;23.468;2023-02-02T09:08:38;93003.06;;;2.42;100.00
6204;BME280;3135;42.602;23.468;2023-02-02T09:11:09;93002.69;;;2.50;100.00
6204;BME280;3135;42.602;23.468;2023-02-02T09:13:36;93002.81;;;2.43;100.00
6204;BME280;3135;42.602;23.468;2023-02-02T09:16:03;93005.88;;;2.52;100.00
6204;BME280;3135;42.602;23.468;2023-02-02T09:18:29;93009.31;;;2.52;100.00
6204;BME280;3135;42.602;23.468;2023-02-02T09:20:59;92992.69;;;2.52;100.00
6204;BME280;3135;42.602;23.468;2023-02-02T09:23:25;93004.00;;;2.64;100.00
6204;BME280;3135;42.602;23.468;2023-02-02T09:25:51;93001.41;;;2.81;100.00
6204;BME280;3135;42.602;23.468;2023-02-02T09:28:16;92992.94;;;2.79;100.00
6204;BME280;3135;42.602;23.468;2023-02-02T09:30:41;92995.84;;;2.66;100.00
6204;BME280;3135;42.602;23.468;2023-02-02T09:33:07;93000.16;;;2.84;100.00
6204;BME280;3135;42.602;23.468;2023-02-02T09:35:33;92966.13;;;2.70;100.00
6204;BME280;3135;42.602;23.468;2023-02-02T09:37:58;92977.03;;;2.62;100.00
6204;BME280;3135;42.602;23.468;2023-02-02T09:40:24;92978.56;;;2.58;100.00
6204;BME280;3135;42.602;23.468;2023-02-02T09:46:27;92978.25;;;2.83;100.00
6204;BME280;3135;42.602;23.468;2023-02-02T09:49:06;92957.75;;;2.90;100.00
6204;BME280;3135;42.602;23.468;2023-02-02T09:51:38;92971.03;;;2.95;100.00
6204;BME280;3135;42.602;23.468;2023-02-02T09:54:17;92978.13;;;3.06;100.00
6204;BME280;3135;42.602;23.468;2023-02-02T09:56:47;92979.47;;;3.09;100.00
6204;BME280;3135;42.602;23.468;2023-02-02T09:59:28;92966.97;;;3.04;100.00
6204;BME280;3135;42.602;23.468;2023-02-02T10:01:57;92967.47;;;3.35;100.00
6204;BME280;3135;42.602;23.468;2023-02-02T10:04:33;92955.84;;;3.19;100.00
6204;BME280;3135;42.602;23.468;2023-02-02T10:07:05;92953.78;;;3.04;100.00
6204;BME280;3135;42.602;23.468;2023-02-02T10:09:37;92956.97;;;3.23;100.00
6204;BME280;3135;42.602;23.468;2023-02-02T10:12:15;92950.34;;;3.38;100.00
6204;BME280;3135;42.602;23.468;2023-02-02T10:14:50;92955.22;;;3.63;100.00
6204;BME280;3135;42.602;23.468;2023-02-02T10:19:47;92943.66;;;3.69;100.00
6204;BME280;3135;42.602;23.468;2023-02-02T10:22:22;92916.75;;;3.72;100.00
6204;BME280;3135;42.602;23.468;2023-02-02T10:24:49;92940.03;;;3.92;100.00
6204;BME280;3135;42.602;23.468;2023-02-02T10:27:16;92938.78;;;3.99;100.00
6204;BME280;3135;42.602;23.468;2023-02-02T10:29:58;92921.44;;;4.08;100.00
6204;BME280;3135;42.602;23.468;2023-02-02T10:32:33;92896.78;;;4.03;100.00
6204;BME280;3135;42.602;23.468;2023-02-02T10:46:13;92890.69;;;4.51;100.00
6204;BME280;3135;42.602;23.468;2023-02-02T10:48:40;92907.63;;;4.50;100.00
6204;BME280;3135;42.602;23.468;2023-02-02T10:51:16;92888.16;;;4.34;100.00
6204;BME280;3135;42.602;23.468;2023-02-02T10:53:49;92888.66;;;4.31;100.00
6204;BME280;3135;42.602;23.468;2023-02-02T10:56:17;92872.38;;;4.45;100.00
6204;BME280;3135;42.602;23.468;2023-02-02T10:58:51;92880.19;;;4.56;100.00
6204;BME280;3135;42.602;23.468;2023-02-02T11:01:19;92882.28;;;4.54;100.00
6204;BME280;3135;42.602;23.468;2023-02-02T11:03:47;92861.09;;;4.54;100.00
6204;BME280;3135;42.602;23.468;2023-02-02T11:06:14;92854.47;;;4.52;100.00
6204;BME280;3135;42.602;23.468;2023-02-02T11:08:58;92871.41;;;4.83;100.00
6204;BME280;3135;42.602;23.468;2023-02-02T11:11:44;92870.75;;;4.98;100.00
6204;BME280;3135;42.602;23.468;2023-02-02T11:14:19;92856.75;;;5.02;100.00
6204;BME280;3135;42.602;23.468;2023-02-02T11:16:45;92856.59;;;5.14;100.00
6204;BME280;3135;42.602;23.468;2023-02-02T11:19:28;92838.81;;;5.09;100.00
6204;BME280;3135;42.602;23.468;2023-02-02T11:21:56;92846.97;;;5.08;100.00
6204;BME280;3135;42.602;23.468;2023-02-02T11:24:26;92862.84;;;5.03;100.00
6204;BME280;3135;42.602;23.468;2023-02-02T11:27:18;92851.75;;;5.06;100.00
6204;BME280;3135;42.602;23.468;2023-02-02T11:29:47;92835.06;;;5.05;100.00
6204;BME280;3135;42.602;23.468;2023-02-02T11:35:13;92850.66;;;5.39;100.00
6204;BME280;3135;42.602;23.468;2023-02-02T11:42:46;92831.72;;;5.68;100.00
6204;BME280;3135;42.602;23.468;2023-02-02T11:45:17;92825.34;;;5.63;100.00
6204;BME280;3135;42.602;23.468;2023-02-02T11:47:45;92830.16;;;5.72;97.34
6204;BME280;3135;42.602;23.468;2023-02-02T11:50:22;92821.13;;;5.68;100.00
6204;BME280;3135;42.602;23.468;2023-02-02T11:52:49;92794.59;;;5.62;100.00
6204;BME280;3135;42.602;23.468;2023-02-02T11:55:17;92825.47;;;5.89;100.00
6204;BME280;3135;42.602;23.468;2023-02-02T12:01:02;92814.31;;;5.87;100.00
6204;BME280;3135;42.602;23.468;2023-02-02T12:03:32;92810.84;;;5.86;100.00
6204;BME280;3135;42.602;23.468;2023-02-02T12:05:58;92804.16;;;5.74;96.74
6204;BME280;3135;42.602;23.468;2023-02-02T12:08:27;92802.50;;;5.57;100.00
6204;BME280;3135;42.602;23.468;2023-02-02T12:11:02;92791.19;;;5.72;98.59
6204;BME280;3135;42.602;23.468;2023-02-02T12:13:36;92784.78;;;5.68;100.00
6204;BME280;3135;42.602;23.468;2023-02-02T12:16:32;92785.81;;;5.57;100.00
6204;BME280;3135;42.602;23.468;2023-02-02T12:24:59;92791.44;;;5.66;99.02
6204;BME280;3135;42.602;23.468;2023-02-02T12:28:26;92784.34;;;5.86;96.27
6204;BME280;3135;42.602;23.468;2023-02-02T12:33:53;92782.47;;;5.87;94.85
6204;BME280;3135;42.602;23.468;2023-02-02T12:36:42;92798.19;;;5.94;96.68
6204;BME280;3135;42.602;23.468;2023-02-02T12:42:27;92792.75;;;5.73;96.72
6204;BME280;3135;42.602;23.468;2023-02-02T12:47:51;92775.16;;;5.47;100.00
6204;BME280;3135;42.602;23.468;2023-02-02T12:50:48;92792.72;;;5.58;100.00
6204;BME280;3135;42.602;23.468;2023-02-02T12:53:37;92796.84;;;5.38;100.00
6204;BME280;3135;42.602;23.468;2023-02-02T12:56:21;92786.53;;;5.37;100.00
6204;BME280;3135;42.602;23.468;2023-02-02T13:01:29;92799.75;;;5.32;98.27
6204;BME280;3135;42.602;23.468;2023-02-02T13:10:29;92793.47;;;5.06;100.00
6204;BME280;3135;42.602;23.468;2023-02-02T13:13:00;92800.97;;;5.14;100.00
6204;BME280;3135;42.602;23.468;2023-02-02T13:15:32;92785.22;;;4.97;100.00
6204;BME280;3135;42.602;23.468;2023-02-02T13:18:00;92772.38;;;4.79;100.00
6204;BME280;3135;42.602;23.468;2023-02-02T13:23:42;92800.22;;;4.86;100.00
6204;BME280;3135;42.602;23.468;2023-02-02T13:26:15;92782.19;;;4.83;100.00
6204;BME280;3135;42.602;23.468;2023-02-02T13:28:54;92795.56;;;4.99;100.00
6204;BME280;3135;42.602;23.468;2023-02-02T13:31:54;92787.66;;;5.04;100.00
6204;BME280;3135;42.602;23.468;2023-02-02T13:34:26;92792.19;;;5.08;100.00
6204;BME280;3135;42.602;23.468;2023-02-02T13:36:56;92793.81;;;5.15;100.00
6204;BME280;3135;42.602;23.468;2023-02-02T13:39:40;92793.00;;;5.14;100.00
6204;BME280;3135;42.602;23.468;2023-02-02T13:42:20;92794.09;;;5.18;100.00
6204;BME280;3135;42.602;23.468;2023-02-02T13:44:54;92783.72;;;5.11;100.00
6204;BME280;3135;42.602;23.468;2023-02-02T13:47:28;92752.88;;;4.90;100.00
6204;BME280;3135;42.602;23.468;2023-02-02T13:50:04;92762.38;;;4.86;100.00
6204;BME280;3135;42.602;23.468;2023-02-02T13:55:43;92786.78;;;4.98;100.00
6204;BME280;3135;42.602;23.468;2023-02-02T13:58:25;92783.25;;;4.82;100.00
6204;BME280;3135;42.602;23.468;2023-02-02T14:01:00;92787.28;;;4.90;98.87
6204;BME280;3135;42.602;23.468;2023-02-02T14:03:43;92783.03;;;4.89;100.00
6204;BME280;3135;42.602;23.468;2023-02-02T14:06:19;92778.44;;;4.79;100.00
6204;BME280;3135;42.602;23.468;2023-02-02T14:08:57;92775.56;;;4.81;100.00
6204;BME280;3135;42.602;23.468;2023-02-02T14:11:35;92772.66;;;4.82;100.00
6204;BME280;3135;42.602;23.468;2023-02-02T14:14:18;92777.72;;;4.89;100.00
6204;BME280;3135;42.602;23.468;2023-02-02T14:19:56;92774.13;;;5.00;100.00
6204;BME280;3135;42.602;23.468;2023-02-02T14:22:45;92769.13;;;5.04;100.00
6204;BME280;3135;42.602;23.468;2023-02-02T14:28:03;92766.47;;;5.04;100.00
6204;BME280;3135;42.602;23.468;2023-02-02T14:30:34;92763.81;;;5.04;100.00
6204;BME280;3135;42.602;23.468;2023-02-02T14:33:37;92756.16;;;5.12;100.00
6204;BME280;3135;42.602;23.468;2023-02-02T14:36:04;92764.06;;;5.02;100.00
6204;BME280;3135;42.602;23.468;2023-02-02T14:38:50;92771.66;;;4.94;100.00
6204;BME280;3135;42.602;23.468;2023-02-02T14:41:44;92767.13;;;4.89;100.00
6204;BME280;3135;42.602;23.468;2023-02-02T14:44:29;92758.53;;;4.67;100.00
6204;BME280;3135;42.602;23.468;2023-02-02T14:46:55;92780.53;;;4.72;100.00
6204;BME280;3135;42.602;23.468;2023-02-02T14:49:26;92793.16;;;4.65;100.00
6204;BME280;3135;42.602;23.468;2023-02-02T14:51:55;92791.81;;;4.57;100.00